sensor_id;sensor_type;location;lat;lon;timestamp;P1;durP1;ratioP1;P2;durP2;ratioP2
59938;SDS011;45801;51.810;19.444;2023-07-31T00:01:00;5.10;;;1.70;;
59938;SDS011;45801;51.810;19.444;2023-07-31T00:03:27;6.40;;;2.80;;
59938;SDS011;45801;51.810;19.444;2023-07-31T00:05:53;7.20;;;2.50;;
59938;SDS011;45801;51.810;19.444;2023-07-31T00:08:20;4.50;;;1.70;;
59938;SDS011;45801;51.810;19.444;2023-07-31T00:10:46;7.00;;;2.50;;
59938;SDS011;45801;51.810;19.444;2023-07-31T00:13:13;6.20;;;2.70;;
59938;SDS011;45801;51.810;19.444;2023-07-31T00:15:39;7.10;;;2.70;;
59938;SDS011;45801;51.810;19.444;2023-07-31T00:18:06;5.90;;;2.70;;
59938;SDS011;45801;51.810;19.444;2023-07-31T00:20:32;6.70;;;3.00;;
59938;SDS011;45801;51.810;19.444;2023-07-31T00:22:58;6.00;;;2.90;;
59938;SDS011;45801;51.810;19.444;2023-07-31T00:25:25;7.00;;;2.90;;
59938;SDS011;45801;51.810;19.444;2023-07-31T00:27:51;6.80;;;2.90;;
59938;SDS011;45801;51.810;19.444;2023-07-31T00:30:18;5.90;;;2.80;;
59938;SDS011;45801;51.810;19.444;2023-07-31T00:32:44;6.70;;;3.10;;
59938;SDS011;45801;51.810;19.444;2023-07-31T00:35:11;7.60;;;2.80;;
59938;SDS011;45801;51.810;19.444;2023-07-31T00:37:37;6.30;;;2.70;;
59938;SDS011;45801;51.810;19.444;2023-07-31T00:40:04;7.50;;;3.10;;
59938;SDS011;45801;51.810;19.444;2023-07-31T00:42:31;6.40;;;2.90;;
59938;SDS011;45801;51.810;19.444;2023-07-31T00:44:57;6.50;;;3.30;;
59938;SDS011;45801;51.810;19.444;2023-07-31T00:47:24;7.40;;;3.20;;
59938;SDS011;45801;51.810;19.444;2023-07-31T00:49:51;6.70;;;3.00;;
59938;SDS011;45801;51.810;19.444;2023-07-31T00:52:18;6.50;;;3.10;;
59938;SDS011;45801;51.810;19.444;2023-07-31T00:54:45;6.80;;;3.20;;
59938;SDS011;45801;51.810;19.444;2023-07-31T00:57:12;6.80;;;2.90;;
59938;SDS011;45801;51.810;19.444;2023-07-31T00:59:38;6.70;;;3.10;;
59938;SDS011;45801;51.810;19.444;2023-07-31T01:02:05;7.00;;;3.00;;
59938;SDS011;45801;51.810;19.444;2023-07-31T01:04:31;8.00;;;3.20;;
59938;SDS011;45801;51.810;19.444;2023-07-31T01:07:05;8.20;;;3.00;;
59938;SDS011;45801;51.810;19.444;2023-07-31T01:09:44;6.10;;;3.00;;
59938;SDS011;45801;51.810;19.444;2023-07-31T01:12:29;7.60;;;2.90;;
59938;SDS011;45801;51.810;19.444;2023-07-31T01:15:07;7.00;;;3.40;;
59938;SDS011;45801;51.810;19.444;2023-07-31T01:17:38;7.50;;;3.90;;
59938;SDS011;45801;51.810;19.444;2023-07-31T01:20:07;6.90;;;3.40;;
59938;SDS011;45801;51.810;19.444;2023-07-31T01:28:27;6.30;;;3.00;;
59938;SDS011;45801;51.810;19.444;2023-07-31T01:31:09;6.10;;;3.10;;
59938;SDS011;45801;51.810;19.444;2023-07-31T01:33:38;5.70;;;2.70;;
59938;SDS011;45801;51.810;19.444;2023-07-31T01:36:06;7.80;;;3.30;;
59938;SDS011;45801;51.810;19.444;2023-07-31T01:38:33;7.80;;;3.20;;
59938;SDS011;45801;51.810;19.444;2023-07-31T01:41:01;7.70;;;3.10;;
59938;SDS011;45801;51.810;19.444;2023-07-31T01:43:27;7.80;;;3.10;;
59938;SDS011;45801;51.810;19.444;2023-07-31T01:45:54;6.70;;;3.10;;
59938;SDS011;45801;51.810;19.444;2023-07-31T01:48:20;6.50;;;2.80;;
59938;SDS011;45801;51.810;19.444;2023-07-31T01:50:47;8.60;;;3.30;;
59938;SDS011;45801;51.810;19.444;2023-07-31T01:53:14;6.10;;;2.90;;
59938;SDS011;45801;51.810;19.444;2023-07-31T01:55:41;7.00;;;3.00;;
59938;SDS011;45801;51.810;19.444;2023-07-31T01:58:07;5.80;;;2.90;;
59938;SDS011;45801;51.810;19.444;2023-07-31T02:00:34;7.30;;;2.90;;
59938;SDS011;45801;51.810;19.444;2023-07-31T02:03:01;5.10;;;2.70;;
59938;SDS011;45801;51.810;19.444;2023-07-31T02:05:27;8.10;;;3.20;;
59938;SDS011;45801;51.810;19.444;2023-07-31T02:07:54;7.70;;;3.00;;
59938;SDS011;45801;51.810;19.444;2023-07-31T02:10:20;7.00;;;2.90;;
59938;SDS011;45801;51.810;19.444;2023-07-31T02:12:46;7.20;;;2.80;;
59938;SDS011;45801;51.810;19.444;2023-07-31T02:15:13;6.40;;;2.90;;
59938;SDS011;45801;51.810;19.444;2023-07-31T02:17:40;7.50;;;2.90;;
59938;SDS011;45801;51.810;19.444;2023-07-31T02:20:06;5.50;;;2.50;;
59938;SDS011;45801;51.810;19.444;2023-07-31T02:22:33;9.60;;;2.50;;
59938;SDS011;45801;51.810;19.444;2023-07-31T02:24:59;7.70;;;2.80;;
59938;SDS011;45801;51.810;19.444;2023-07-31T02:27:26;5.10;;;2.60;;
59938;SDS011;45801;51.810;19.444;2023-07-31T02:29:53;5.80;;;2.60;;
59938;SDS011;45801;51.810;19.444;2023-07-31T02:32:21;7.70;;;2.80;;
59938;SDS011;45801;51.810;19.444;2023-07-31T02:34:47;5.80;;;2.60;;
59938;SDS011;45801;51.810;19.444;2023-07-31T02:37:15;7.70;;;2.60;;
59938;SDS011;45801;51.810;19.444;2023-07-31T02:39:41;6.50;;;2.50;;
59938;SDS011;45801;51.810;19.444;2023-07-31T02:42:08;7.00;;;2.40;;
59938;SDS011;45801;51.810;19.444;2023-07-31T02:44:34;5.90;;;2.40;;
59938;SDS011;45801;51.810;19.444;2023-07-31T02:47:01;6.20;;;2.50;;
59938;SDS011;45801;51.810;19.444;2023-07-31T02:49:29;7.60;;;2.70;;
59938;SDS011;45801;51.810;19.444;2023-07-31T02:51:55;5.60;;;2.50;;
59938;SDS011;45801;51.810;19.444;2023-07-31T02:54:22;6.60;;;2.60;;
59938;SDS011;45801;51.810;19.444;2023-07-31T02:56:48;5.30;;;2.40;;
59938;SDS011;45801;51.810;19.444;2023-07-31T02:59:15;6.40;;;2.50;;
59938;SDS011;45801;51.810;19.444;2023-07-31T03:01:41;5.40;;;2.60;;
59938;SDS011;45801;51.810;19.444;2023-07-31T03:04:07;7.60;;;2.60;;
59938;SDS011;45801;51.810;19.444;2023-07-31T03:06:34;6.60;;;2.30;;
59938;SDS011;45801;51.810;19.444;2023-07-31T03:09:00;6.10;;;2.40;;
59938;SDS011;45801;51.810;19.444;2023-07-31T03:11:26;8.50;;;2.70;;
59938;SDS011;45801;51.810;19.444;2023-07-31T03:13:53;7.40;;;2.60;;
59938;SDS011;45801;51.810;19.444;2023-07-31T03:16:20;6.10;;;2.90;;
59938;SDS011;45801;51.810;19.444;2023-07-31T03:18:46;7.30;;;2.60;;
59938;SDS011;45801;51.810;19.444;2023-07-31T03:21:13;7.20;;;3.00;;
59938;SDS011;45801;51.810;19.444;2023-07-31T03:23:40;8.10;;;3.10;;
59938;SDS011;45801;51.810;19.444;2023-07-31T03:26:07;6.50;;;3.20;;
59938;SDS011;45801;51.810;19.444;2023-07-31T03:28:34;6.50;;;3.20;;
59938;SDS011;45801;51.810;19.444;2023-07-31T03:31:00;6.80;;;2.80;;
59938;SDS011;45801;51.810;19.444;2023-07-31T03:33:27;7.50;;;3.00;;
59938;SDS011;45801;51.810;19.444;2023-07-31T03:35:53;6.90;;;2.80;;
59938;SDS011;45801;51.810;19.444;2023-07-31T03:38:20;6.60;;;3.00;;
59938;SDS011;45801;51.810;19.444;2023-07-31T03:40:46;8.00;;;3.50;;
59938;SDS011;45801;51.810;19.444;2023-07-31T03:43:13;9.50;;;3.10;;
59938;SDS011;45801;51.810;19.444;2023-07-31T03:45:39;6.50;;;2.80;;
59938;SDS011;45801;51.810;19.444;2023-07-31T03:48:06;7.30;;;3.10;;
59938;SDS011;45801;51.810;19.444;2023-07-31T03:50:34;6.60;;;2.80;;
59938;SDS011;45801;51.810;19.444;2023-07-31T03:53:00;7.00;;;3.00;;
59938;SDS011;45801;51.810;19.444;2023-07-31T03:55:26;6.40;;;3.10;;
59938;SDS011;45801;51.810;19.444;2023-07-31T03:57:53;7.30;;;3.20;;
59938;SDS011;45801;51.810;19.444;2023-07-31T04:00:19;7.50;;;3.00;;
59938;SDS011;45801;51.810;19.444;2023-07-31T04:02:46;6.40;;;3.20;;
59938;SDS011;45801;51.810;19.444;2023-07-31T04:05:13;8.20;;;3.10;;
59938;SDS011;45801;51.810;19.444;2023-07-31T04:07:39;6.80;;;3.20;;
59938;SDS011;45801;51.810;19.444;2023-07-31T04:10:06;7.30;;;3.30;;
59938;SDS011;45801;51.810;19.444;2023-07-31T04:12:32;8.50;;;3.00;;
59938;SDS011;45801;51.810;19.444;2023-07-31T04:14:59;8.40;;;3.50;;
59938;SDS011;45801;51.810;19.444;2023-07-31T04:17:25;6.40;;;2.80;;
59938;SDS011;45801;51.810;19.444;2023-07-31T04:19:52;7.30;;;3.00;;
59938;SDS011;45801;51.810;19.444;2023-07-31T04:22:18;7.70;;;3.10;;
59938;SDS011;45801;51.810;19.444;2023-07-31T04:24:44;8.50;;;3.30;;
59938;SDS011;45801;51.810;19.444;2023-07-31T04:27:11;7.90;;;3.00;;
59938;SDS011;45801;51.810;19.444;2023-07-31T04:29:37;7.30;;;3.00;;
59938;SDS011;45801;51.810;19.444;2023-07-31T04:32:06;7.20;;;3.30;;
59938;SDS011;45801;51.810;19.444;2023-07-31T04:34:32;8.70;;;3.10;;
59938;SDS011;45801;51.810;19.444;2023-07-31T04:36:59;7.10;;;2.70;;
59938;SDS011;45801;51.810;19.444;2023-07-31T04:39:25;6.70;;;3.00;;
59938;SDS011;45801;51.810;19.444;2023-07-31T04:41:51;7.00;;;3.30;;
59938;SDS011;45801;51.810;19.444;2023-07-31T04:44:18;7.10;;;3.40;;
59938;SDS011;45801;51.810;19.444;2023-07-31T04:46:44;6.90;;;3.20;;
59938;SDS011;45801;51.810;19.444;2023-07-31T04:49:11;7.50;;;3.10;;
59938;SDS011;45801;51.810;19.444;2023-07-31T04:51:38;7.40;;;3.30;;
59938;SDS011;45801;51.810;19.444;2023-07-31T04:54:04;8.00;;;3.60;;
59938;SDS011;45801;51.810;19.444;2023-07-31T04:56:31;8.00;;;3.30;;
59938;SDS011;45801;51.810;19.444;2023-07-31T04:58:57;8.90;;;3.20;;
59938;SDS011;45801;51.810;19.444;2023-07-31T05:01:23;6.80;;;3.10;;
59938;SDS011;45801;51.810;19.444;2023-07-31T05:03:50;9.10;;;3.50;;
59938;SDS011;45801;51.810;19.444;2023-07-31T05:06:16;7.20;;;3.60;;
59938;SDS011;45801;51.810;19.444;2023-07-31T05:08:43;7.60;;;2.90;;
59938;SDS011;45801;51.810;19.444;2023-07-31T05:11:09;8.40;;;3.50;;
59938;SDS011;45801;51.810;19.444;2023-07-31T05:13:35;7.00;;;3.20;;
59938;SDS011;45801;51.810;19.444;2023-07-31T05:16:02;7.90;;;2.90;;
59938;SDS011;45801;51.810;19.444;2023-07-31T05:18:28;6.70;;;3.30;;
59938;SDS011;45801;51.810;19.444;2023-07-31T05:20:55;7.00;;;2.80;;
59938;SDS011;45801;51.810;19.444;2023-07-31T05:23:21;6.70;;;2.90;;
59938;SDS011;45801;51.810;19.444;2023-07-31T05:25:47;8.10;;;2.70;;
59938;SDS011;45801;51.810;19.444;2023-07-31T05:28:14;10.20;;;3.10;;
59938;SDS011;45801;51.810;19.444;2023-07-31T05:30:40;7.10;;;2.90;;
59938;SDS011;45801;51.810;19.444;2023-07-31T05:33:07;8.00;;;3.20;;
59938;SDS011;45801;51.810;19.444;2023-07-31T05:35:33;11.10;;;3.40;;
59938;SDS011;45801;51.810;19.444;2023-07-31T05:37:59;8.20;;;3.20;;
59938;SDS011;45801;51.810;19.444;2023-07-31T05:40:26;7.30;;;2.90;;
59938;SDS011;45801;51.810;19.444;2023-07-31T05:42:52;8.90;;;3.40;;
59938;SDS011;45801;51.810;19.444;2023-07-31T05:45:19;6.40;;;3.10;;
59938;SDS011;45801;51.810;19.444;2023-07-31T05:47:45;10.80;;;3.40;;
59938;SDS011;45801;51.810;19.444;2023-07-31T05:50:12;7.60;;;3.70;;
59938;SDS011;45801;51.810;19.444;2023-07-31T05:52:39;8.60;;;3.30;;
59938;SDS011;45801;51.810;19.444;2023-07-31T05:55:05;7.60;;;3.20;;
59938;SDS011;45801;51.810;19.444;2023-07-31T05:57:32;6.90;;;3.20;;
59938;SDS011;45801;51.810;19.444;2023-07-31T05:59:58;8.40;;;3.30;;
59938;SDS011;45801;51.810;19.444;2023-07-31T06:02:25;6.40;;;3.10;;
59938;SDS011;45801;51.810;19.444;2023-07-31T06:04:51;8.00;;;3.30;;
59938;SDS011;45801;51.810;19.444;2023-07-31T06:07:17;9.10;;;3.70;;
59938;SDS011;45801;51.810;19.444;2023-07-31T06:09:45;7.60;;;3.00;;
59938;SDS011;45801;51.810;19.444;2023-07-31T06:12:11;6.70;;;2.90;;
59938;SDS011;45801;51.810;19.444;2023-07-31T06:14:38;8.60;;;3.20;;
59938;SDS011;45801;51.810;19.444;2023-07-31T06:17:05;8.40;;;3.40;;
59938;SDS011;45801;51.810;19.444;2023-07-31T06:19:31;8.60;;;3.20;;
59938;SDS011;45801;51.810;19.444;2023-07-31T06:21:58;9.00;;;3.30;;
59938;SDS011;45801;51.810;19.444;2023-07-31T06:24:24;9.10;;;3.00;;
59938;SDS011;45801;51.810;19.444;2023-07-31T06:26:50;7.30;;;3.50;;
59938;SDS011;45801;51.810;19.444;2023-07-31T06:29:17;6.80;;;3.00;;
59938;SDS011;45801;51.810;19.444;2023-07-31T06:31:43;9.40;;;3.50;;
59938;SDS011;45801;51.810;19.444;2023-07-31T06:34:10;6.80;;;3.20;;
59938;SDS011;45801;51.810;19.444;2023-07-31T06:36:36;9.40;;;3.50;;
59938;SDS011;45801;51.810;19.444;2023-07-31T06:39:03;9.10;;;3.00;;
59938;SDS011;45801;51.810;19.444;2023-07-31T06:41:30;7.20;;;2.70;;
59938;SDS011;45801;51.810;19.444;2023-07-31T06:43:56;6.80;;;3.10;;
59938;SDS011;45801;51.810;19.444;2023-07-31T06:46:23;7.60;;;3.40;;
59938;SDS011;45801;51.810;19.444;2023-07-31T06:48:49;6.80;;;2.70;;
59938;SDS011;45801;51.810;19.444;2023-07-31T06:51:15;7.90;;;3.20;;
59938;SDS011;45801;51.810;19.444;2023-07-31T06:53:42;5.80;;;2.70;;
59938;SDS011;45801;51.810;19.444;2023-07-31T06:56:11;8.10;;;3.00;;
59938;SDS011;45801;51.810;19.444;2023-07-31T06:58:37;8.10;;;3.50;;
59938;SDS011;45801;51.810;19.444;2023-07-31T07:01:04;9.60;;;3.00;;
59938;SDS011;45801;51.810;19.444;2023-07-31T07:03:30;7.50;;;2.80;;
59938;SDS011;45801;51.810;19.444;2023-07-31T07:05:57;6.20;;;2.70;;
59938;SDS011;45801;51.810;19.444;2023-07-31T07:08:24;7.30;;;2.90;;
59938;SDS011;45801;51.810;19.444;2023-07-31T07:10:50;9.60;;;3.10;;
59938;SDS011;45801;51.810;19.444;2023-07-31T07:13:17;7.00;;;2.60;;
59938;SDS011;45801;51.810;19.444;2023-07-31T07:15:50;7.20;;;3.00;;
59938;SDS011;45801;51.810;19.444;2023-07-31T07:18:17;8.50;;;3.10;;
59938;SDS011;45801;51.810;19.444;2023-07-31T07:20:49;10.60;;;3.30;;
59938;SDS011;45801;51.810;19.444;2023-07-31T07:23:16;7.40;;;2.70;;
59938;SDS011;45801;51.810;19.444;2023-07-31T07:25:42;8.50;;;3.00;;
59938;SDS011;45801;51.810;19.444;2023-07-31T07:28:10;5.70;;;2.40;;
59938;SDS011;45801;51.810;19.444;2023-07-31T07:30:36;7.70;;;2.40;;
59938;SDS011;45801;51.810;19.444;2023-07-31T07:33:03;6.80;;;2.40;;
59938;SDS011;45801;51.810;19.444;2023-07-31T07:35:29;7.80;;;3.10;;
59938;SDS011;45801;51.810;19.444;2023-07-31T07:37:56;9.20;;;2.50;;
59938;SDS011;45801;51.810;19.444;2023-07-31T07:40:22;6.70;;;2.80;;
59938;SDS011;45801;51.810;19.444;2023-07-31T07:42:49;5.90;;;2.40;;
59938;SDS011;45801;51.810;19.444;2023-07-31T07:45:16;7.00;;;2.30;;
59938;SDS011;45801;51.810;19.444;2023-07-31T07:47:42;7.40;;;2.20;;
59938;SDS011;45801;51.810;19.444;2023-07-31T07:50:09;7.30;;;2.10;;
59938;SDS011;45801;51.810;19.444;2023-07-31T07:52:36;7.50;;;2.70;;
59938;SDS011;45801;51.810;19.444;2023-07-31T07:55:02;5.80;;;2.00;;
59938;SDS011;45801;51.810;19.444;2023-07-31T07:57:29;7.60;;;2.00;;
59938;SDS011;45801;51.810;19.444;2023-07-31T07:59:56;6.60;;;2.00;;
59938;SDS011;45801;51.810;19.444;2023-07-31T08:02:22;6.50;;;2.00;;
59938;SDS011;45801;51.810;19.444;2023-07-31T08:04:48;5.80;;;2.20;;
59938;SDS011;45801;51.810;19.444;2023-07-31T08:07:15;8.10;;;2.30;;
59938;SDS011;45801;51.810;19.444;2023-07-31T08:09:42;7.10;;;2.20;;
59938;SDS011;45801;51.810;19.444;2023-07-31T08:12:08;7.50;;;2.30;;
59938;SDS011;45801;51.810;19.444;2023-07-31T08:14:35;8.30;;;2.20;;
59938;SDS011;45801;51.810;19.444;2023-07-31T08:17:02;6.20;;;2.10;;
59938;SDS011;45801;51.810;19.444;2023-07-31T08:19:28;6.80;;;1.90;;
59938;SDS011;45801;51.810;19.444;2023-07-31T08:21:55;6.40;;;2.10;;
59938;SDS011;45801;51.810;19.444;2023-07-31T08:24:21;5.80;;;1.70;;
59938;SDS011;45801;51.810;19.444;2023-07-31T08:26:48;5.80;;;2.00;;
59938;SDS011;45801;51.810;19.444;2023-07-31T08:29:14;5.90;;;2.10;;
59938;SDS011;45801;51.810;19.444;2023-07-31T08:31:41;6.60;;;2.00;;
59938;SDS011;45801;51.810;19.444;2023-07-31T08:34:07;7.10;;;1.90;;
59938;SDS011;45801;51.810;19.444;2023-07-31T08:36:33;6.40;;;2.10;;
59938;SDS011;45801;51.810;19.444;2023-07-31T08:39:00;6.40;;;2.20;;
59938;SDS011;45801;51.810;19.444;2023-07-31T08:41:27;6.30;;;1.80;;
59938;SDS011;45801;51.810;19.444;2023-07-31T08:43:53;5.80;;;1.90;;
59938;SDS011;45801;51.810;19.444;2023-07-31T08:46:21;5.10;;;1.60;;
59938;SDS011;45801;51.810;19.444;2023-07-31T08:48:47;6.70;;;1.80;;
59938;SDS011;45801;51.810;19.444;2023-07-31T08:51:14;6.90;;;2.20;;
59938;SDS011;45801;51.810;19.444;2023-07-31T08:53:41;5.00;;;1.80;;
59938;SDS011;45801;51.810;19.444;2023-07-31T08:56:08;4.90;;;2.00;;
59938;SDS011;45801;51.810;19.444;2023-07-31T08:58:35;5.50;;;1.80;;
59938;SDS011;45801;51.810;19.444;2023-07-31T09:01:04;6.80;;;2.00;;
59938;SDS011;45801;51.810;19.444;2023-07-31T09:03:33;5.10;;;1.80;;
59938;SDS011;45801;51.810;19.444;2023-07-31T09:06:01;6.80;;;2.00;;
59938;SDS011;45801;51.810;19.444;2023-07-31T09:08:30;5.40;;;1.90;;
59938;SDS011;45801;51.810;19.444;2023-07-31T09:11:00;5.80;;;1.90;;
59938;SDS011;45801;51.810;19.444;2023-07-31T09:13:29;5.60;;;2.30;;
59938;SDS011;45801;51.810;19.444;2023-07-31T09:15:57;6.40;;;2.40;;
59938;SDS011;45801;51.810;19.444;2023-07-31T09:18:24;6.40;;;2.10;;
59938;SDS011;45801;51.810;19.444;2023-07-31T09:21:04;6.50;;;2.30;;
59938;SDS011;45801;51.810;19.444;2023-07-31T09:23:41;6.10;;;2.00;;
59938;SDS011;45801;51.810;19.444;2023-07-31T09:26:10;4.60;;;1.80;;
59938;SDS011;45801;51.810;19.444;2023-07-31T09:28:37;7.60;;;2.10;;
59938;SDS011;45801;51.810;19.444;2023-07-31T09:31:03;7.20;;;2.30;;
59938;SDS011;45801;51.810;19.444;2023-07-31T09:33:29;6.90;;;2.20;;
59938;SDS011;45801;51.810;19.444;2023-07-31T09:35:58;7.10;;;2.20;;
59938;SDS011;45801;51.810;19.444;2023-07-31T09:38:26;6.60;;;2.20;;
59938;SDS011;45801;51.810;19.444;2023-07-31T09:40:53;6.40;;;2.00;;
59938;SDS011;45801;51.810;19.444;2023-07-31T09:43:20;6.00;;;2.10;;
59938;SDS011;45801;51.810;19.444;2023-07-31T09:45:48;7.00;;;1.90;;
59938;SDS011;45801;51.810;19.444;2023-07-31T09:48:23;6.10;;;2.40;;
59938;SDS011;45801;51.810;19.444;2023-07-31T09:50:53;7.30;;;2.30;;
59938;SDS011;45801;51.810;19.444;2023-07-31T09:53:27;9.60;;;2.40;;
59938;SDS011;45801;51.810;19.444;2023-07-31T09:55:57;5.20;;;1.60;;
59938;SDS011;45801;51.810;19.444;2023-07-31T09:58:25;8.60;;;2.10;;
59938;SDS011;45801;51.810;19.444;2023-07-31T10:00:57;7.10;;;2.00;;
59938;SDS011;45801;51.810;19.444;2023-07-31T10:03:24;6.10;;;2.30;;
59938;SDS011;45801;51.810;19.444;2023-07-31T10:05:53;5.90;;;2.00;;
59938;SDS011;45801;51.810;19.444;2023-07-31T10:08:21;7.70;;;2.40;;
59938;SDS011;45801;51.810;19.444;2023-07-31T10:10:57;5.90;;;2.10;;
59938;SDS011;45801;51.810;19.444;2023-07-31T10:13:25;7.10;;;2.10;;
59938;SDS011;45801;51.810;19.444;2023-07-31T10:15:54;5.90;;;2.20;;
59938;SDS011;45801;51.810;19.444;2023-07-31T10:18:20;8.50;;;2.20;;
59938;SDS011;45801;51.810;19.444;2023-07-31T10:20:47;6.00;;;1.90;;
59938;SDS011;45801;51.810;19.444;2023-07-31T10:23:14;6.20;;;1.90;;
59938;SDS011;45801;51.810;19.444;2023-07-31T10:25:42;6.50;;;1.80;;
59938;SDS011;45801;51.810;19.444;2023-07-31T10:28:10;5.90;;;1.70;;
59938;SDS011;45801;51.810;19.444;2023-07-31T10:30:37;5.80;;;2.00;;
59938;SDS011;45801;51.810;19.444;2023-07-31T10:33:06;6.70;;;2.50;;
59938;SDS011;45801;51.810;19.444;2023-07-31T10:35:33;8.70;;;2.70;;
59938;SDS011;45801;51.810;19.444;2023-07-31T10:38:09;5.70;;;2.30;;
59938;SDS011;45801;51.810;19.444;2023-07-31T10:40:38;8.10;;;1.90;;
59938;SDS011;45801;51.810;19.444;2023-07-31T10:43:05;6.70;;;1.70;;
59938;SDS011;45801;51.810;19.444;2023-07-31T10:50:28;6.60;;;1.60;;
59938;SDS011;45801;51.810;19.444;2023-07-31T10:52:56;7.00;;;2.00;;
59938;SDS011;45801;51.810;19.444;2023-07-31T10:58:13;4.40;;;1.30;;
59938;SDS011;45801;51.810;19.444;2023-07-31T11:00:41;6.00;;;2.00;;
59938;SDS011;45801;51.810;19.444;2023-07-31T11:03:09;5.80;;;1.60;;
59938;SDS011;45801;51.810;19.444;2023-07-31T11:08:42;6.10;;;1.70;;
59938;SDS011;45801;51.810;19.444;2023-07-31T11:11:08;7.20;;;1.70;;
59938;SDS011;45801;51.810;19.444;2023-07-31T11:13:48;4.90;;;1.40;;
59938;SDS011;45801;51.810;19.444;2023-07-31T11:16:17;6.00;;;1.70;;
59938;SDS011;45801;51.810;19.444;2023-07-31T11:18:47;5.60;;;1.40;;
59938;SDS011;45801;51.810;19.444;2023-07-31T11:21:16;5.50;;;1.80;;
59938;SDS011;45801;51.810;19.444;2023-07-31T11:23:53;4.80;;;1.60;;
59938;SDS011;45801;51.810;19.444;2023-07-31T11:26:22;5.40;;;1.50;;
59938;SDS011;45801;51.810;19.444;2023-07-31T11:28:50;5.40;;;1.50;;
59938;SDS011;45801;51.810;19.444;2023-07-31T11:31:17;5.50;;;1.70;;
59938;SDS011;45801;51.810;19.444;2023-07-31T11:33:44;5.80;;;1.70;;
59938;SDS011;45801;51.810;19.444;2023-07-31T11:36:17;7.80;;;1.90;;
59938;SDS011;45801;51.810;19.444;2023-07-31T11:38:45;4.60;;;1.30;;
59938;SDS011;45801;51.810;19.444;2023-07-31T11:41:13;8.70;;;2.40;;
59938;SDS011;45801;51.810;19.444;2023-07-31T11:43:42;5.70;;;1.60;;
59938;SDS011;45801;51.810;19.444;2023-07-31T11:46:09;6.40;;;1.70;;
59938;SDS011;45801;51.810;19.444;2023-07-31T11:48:36;4.70;;;1.60;;
59938;SDS011;45801;51.810;19.444;2023-07-31T11:51:04;7.00;;;1.60;;
59938;SDS011;45801;51.810;19.444;2023-07-31T11:53:36;7.30;;;1.80;;
59938;SDS011;45801;51.810;19.444;2023-07-31T11:56:07;6.60;;;1.90;;
59938;SDS011;45801;51.810;19.444;2023-07-31T11:58:37;7.10;;;1.50;;
59938;SDS011;45801;51.810;19.444;2023-07-31T12:01:05;7.10;;;1.80;;
59938;SDS011;45801;51.810;19.444;2023-07-31T12:03:32;6.30;;;1.70;;
59938;SDS011;45801;51.810;19.444;2023-07-31T12:05:59;6.00;;;1.90;;
59938;SDS011;45801;51.810;19.444;2023-07-31T12:08:26;5.10;;;1.50;;
59938;SDS011;45801;51.810;19.444;2023-07-31T12:10:53;6.10;;;2.10;;
59938;SDS011;45801;51.810;19.444;2023-07-31T12:13:21;5.80;;;1.60;;
59938;SDS011;45801;51.810;19.444;2023-07-31T12:15:53;6.20;;;1.60;;
59938;SDS011;45801;51.810;19.444;2023-07-31T12:18:22;8.90;;;2.00;;
59938;SDS011;45801;51.810;19.444;2023-07-31T12:20:53;6.40;;;1.70;;
59938;SDS011;45801;51.810;19.444;2023-07-31T12:28:30;5.00;;;1.80;;
59938;SDS011;45801;51.810;19.444;2023-07-31T12:31:03;5.90;;;1.60;;
59938;SDS011;45801;51.810;19.444;2023-07-31T12:33:34;7.60;;;2.00;;
59938;SDS011;45801;51.810;19.444;2023-07-31T12:36:02;7.10;;;1.90;;
59938;SDS011;45801;51.810;19.444;2023-07-31T12:38:30;7.60;;;2.50;;
59938;SDS011;45801;51.810;19.444;2023-07-31T12:40:57;5.40;;;1.70;;
59938;SDS011;45801;51.810;19.444;2023-07-31T12:43:23;6.60;;;1.90;;
59938;SDS011;45801;51.810;19.444;2023-07-31T12:45:50;7.50;;;2.20;;
59938;SDS011;45801;51.810;19.444;2023-07-31T12:48:16;4.90;;;1.80;;
59938;SDS011;45801;51.810;19.444;2023-07-31T12:50:43;5.20;;;1.60;;
59938;SDS011;45801;51.810;19.444;2023-07-31T12:53:09;7.60;;;1.70;;
59938;SDS011;45801;51.810;19.444;2023-07-31T12:55:36;4.90;;;1.60;;
59938;SDS011;45801;51.810;19.444;2023-07-31T12:58:03;6.20;;;1.80;;
59938;SDS011;45801;51.810;19.444;2023-07-31T13:00:30;7.10;;;2.00;;
59938;SDS011;45801;51.810;19.444;2023-07-31T13:02:56;6.70;;;2.00;;
59938;SDS011;45801;51.810;19.444;2023-07-31T13:05:23;4.30;;;1.80;;
59938;SDS011;45801;51.810;19.444;2023-07-31T13:07:49;5.20;;;1.30;;
59938;SDS011;45801;51.810;19.444;2023-07-31T13:10:16;7.80;;;1.60;;
59938;SDS011;45801;51.810;19.444;2023-07-31T13:12:42;5.80;;;1.60;;
59938;SDS011;45801;51.810;19.444;2023-07-31T13:15:09;5.80;;;1.80;;
59938;SDS011;45801;51.810;19.444;2023-07-31T13:17:36;7.60;;;2.20;;
59938;SDS011;45801;51.810;19.444;2023-07-31T13:20:02;5.90;;;1.60;;
59938;SDS011;45801;51.810;19.444;2023-07-31T13:22:29;4.50;;;1.60;;
59938;SDS011;45801;51.810;19.444;2023-07-31T13:24:56;6.10;;;1.90;;
59938;SDS011;45801;51.810;19.444;2023-07-31T13:27:23;5.30;;;1.50;;
59938;SDS011;45801;51.810;19.444;2023-07-31T13:29:51;7.50;;;1.70;;
59938;SDS011;45801;51.810;19.444;2023-07-31T13:32:18;6.10;;;2.10;;
59938;SDS011;45801;51.810;19.444;2023-07-31T13:34:46;5.60;;;1.60;;
59938;SDS011;45801;51.810;19.444;2023-07-31T13:37:14;7.50;;;1.80;;
59938;SDS011;45801;51.810;19.444;2023-07-31T13:39:41;5.50;;;2.10;;
59938;SDS011;45801;51.810;19.444;2023-07-31T13:42:08;5.90;;;2.10;;
59938;SDS011;45801;51.810;19.444;2023-07-31T13:44:38;4.50;;;1.30;;
59938;SDS011;45801;51.810;19.444;2023-07-31T13:47:05;5.10;;;1.60;;
59938;SDS011;45801;51.810;19.444;2023-07-31T13:49:33;6.70;;;1.60;;
59938;SDS011;45801;51.810;19.444;2023-07-31T13:52:00;6.90;;;1.80;;
59938;SDS011;45801;51.810;19.444;2023-07-31T13:54:28;6.60;;;1.90;;
59938;SDS011;45801;51.810;19.444;2023-07-31T13:56:55;4.90;;;1.40;;
59938;SDS011;45801;51.810;19.444;2023-07-31T13:59:22;6.20;;;2.00;;
59938;SDS011;45801;51.810;19.444;2023-07-31T14:01:48;5.70;;;1.50;;
59938;SDS011;45801;51.810;19.444;2023-07-31T14:04:16;4.90;;;1.60;;
59938;SDS011;45801;51.810;19.444;2023-07-31T14:06:43;3.70;;;1.30;;
59938;SDS011;45801;51.810;19.444;2023-07-31T14:09:10;4.70;;;1.40;;
59938;SDS011;45801;51.810;19.444;2023-07-31T14:11:37;6.60;;;1.60;;
59938;SDS011;45801;51.810;19.444;2023-07-31T14:14:03;5.60;;;1.70;;
59938;SDS011;45801;51.810;19.444;2023-07-31T14:16:31;5.90;;;1.80;;
59938;SDS011;45801;51.810;19.444;2023-07-31T14:18:57;5.60;;;1.80;;
59938;SDS011;45801;51.810;19.444;2023-07-31T14:21:25;7.40;;;2.10;;
59938;SDS011;45801;51.810;19.444;2023-07-31T14:23:52;3.60;;;1.50;;
59938;SDS011;45801;51.810;19.444;2023-07-31T14:26:19;6.60;;;1.90;;
59938;SDS011;45801;51.810;19.444;2023-07-31T14:28:46;4.90;;;2.00;;
59938;SDS011;45801;51.810;19.444;2023-07-31T14:31:12;6.50;;;1.70;;
59938;SDS011;45801;51.810;19.444;2023-07-31T14:33:39;6.60;;;1.90;;
59938;SDS011;45801;51.810;19.444;2023-07-31T14:36:05;4.00;;;1.40;;
59938;SDS011;45801;51.810;19.444;2023-07-31T14:38:33;6.00;;;1.60;;
59938;SDS011;45801;51.810;19.444;2023-07-31T14:41:00;4.60;;;1.50;;
59938;SDS011;45801;51.810;19.444;2023-07-31T14:43:26;4.80;;;1.50;;
59938;SDS011;45801;51.810;19.444;2023-07-31T14:45:53;4.80;;;1.50;;
59938;SDS011;45801;51.810;19.444;2023-07-31T14:48:22;4.40;;;1.60;;
59938;SDS011;45801;51.810;19.444;2023-07-31T14:50:48;5.50;;;1.30;;
59938;SDS011;45801;51.810;19.444;2023-07-31T14:53:15;6.60;;;1.90;;
59938;SDS011;45801;51.810;19.444;2023-07-31T14:55:41;7.50;;;1.90;;